createdAt,value
2023-02-23T00:01:54.253Z,13.73
2023-02-23T00:04:24.606Z,12.30
2023-02-23T00:06:53.441Z,12.37
2023-02-23T00:09:24.284Z,15.17
2023-02-23T00:11:53.385Z,13.47
2023-02-23T00:14:23.107Z,16.07
2023-02-23T00:16:51.198Z,15.53
2023-02-23T00:19:19.530Z,11.87
2023-02-23T00:21:48.892Z,11.73
2023-02-23T00:24:19.147Z,14.30
2023-02-23T00:26:48.029Z,12.73
2023-02-23T00:29:17.641Z,13.27
2023-02-23T00:31:46.414Z,13.30
2023-02-23T00:34:15.704Z,12.50
2023-02-23T00:36:44.077Z,12.73
2023-02-23T00:39:21.434Z,12.37
2023-02-23T00:41:50.184Z,12.43
2023-02-23T00:44:18.212Z,15.73
2023-02-23T00:46:49.081Z,12.03
2023-02-23T00:49:17.341Z,12.30
2023-02-23T00:51:45.338Z,12.77
2023-02-23T00:54:18.993Z,13.43
2023-02-23T00:56:47.956Z,11.73
2023-02-23T00:59:16.893Z,14.17
2023-02-23T01:01:45.047Z,13.27
2023-02-23T01:04:14.450Z,13.93
2023-02-23T01:06:43.090Z,14.43
2023-02-23T01:09:13.843Z,14.83
2023-02-23T01:11:46.589Z,14.50
2023-02-23T01:14:14.607Z,15.27
2023-02-23T01:16:42.611Z,14.50
2023-02-23T01:19:11.705Z,13.87
2023-02-23T01:21:42.275Z,14.57
2023-02-23T01:24:11.796Z,13.67
2023-02-23T01:26:41.810Z,14.83
2023-02-23T01:29:12.764Z,16.70
2023-02-23T01:31:43.271Z,18.67
2023-02-23T01:34:13.321Z,16.20
2023-02-23T01:36:43.457Z,16.50
2023-02-23T01:39:14.073Z,16.20
2023-02-23T01:41:43.308Z,15.37
2023-02-23T01:44:44.736Z,14.77
2023-02-23T01:47:17.069Z,14.43
2023-02-23T01:49:45.159Z,15.57
2023-02-23T01:52:15.870Z,13.90
2023-02-23T01:54:50.493Z,15.93
2023-02-23T01:57:21.639Z,17.67
2023-02-23T01:59:53.664Z,18.43
2023-02-23T02:02:32.737Z,14.93
2023-02-23T02:05:06.395Z,17.30
2023-02-23T02:07:36.181Z,17.63
2023-02-23T02:10:22.810Z,17.17
2023-02-23T02:12:53.467Z,15.30
2023-02-23T02:15:26.077Z,17.27
2023-02-23T02:18:09.202Z,16.83
2023-02-23T02:21:06.079Z,15.93
2023-02-23T02:24:02.289Z,16.77
2023-02-23T02:26:40.881Z,18.20
2023-02-23T02:29:44.182Z,17.57
2023-02-23T02:32:55.276Z,16.73
2023-02-23T02:35:46.458Z,17.80
2023-02-23T02:38:30.774Z,14.67
2023-02-23T02:41:05.360Z,16.50
2023-02-23T02:43:42.840Z,16.83
2023-02-23T02:46:17.784Z,17.90
2023-02-23T02:48:51.701Z,17.63
2023-02-23T02:51:25.361Z,15.57
2023-02-23T02:54:06.726Z,15.33
2023-02-23T02:56:40.297Z,18.60
2023-02-23T02:59:28.641Z,15.00
2023-02-23T03:02:14.478Z,18.20
2023-02-23T03:05:00.369Z,15.27
2023-02-23T03:07:52.882Z,19.17
2023-02-23T03:10:49.699Z,16.10
2023-02-23T03:13:40.482Z,15.73
2023-02-23T03:16:37.187Z,15.37
2023-02-23T03:19:31.675Z,16.20
2023-02-23T03:22:26.414Z,16.13
2023-02-23T03:25:17.407Z,15.10
2023-02-23T03:28:10.374Z,15.70
2023-02-23T03:31:07.090Z,17.90
2023-02-23T03:34:00.584Z,15.50
2023-02-23T03:36:52.171Z,16.33
2023-02-23T03:39:43.567Z,15.33
2023-02-23T03:42:34.315Z,15.93
2023-02-23T03:45:33.339Z,17.33
2023-02-23T03:48:21.071Z,15.73
2023-02-23T03:51:11.903Z,14.93
2023-02-23T03:54:03.703Z,18.37
2023-02-23T03:56:52.507Z,15.40
2023-02-23T03:59:41.872Z,17.93
2023-02-23T04:02:30.819Z,16.03
2023-02-23T04:05:20.222Z,15.93
2023-02-23T04:08:09.718Z,14.37
2023-02-23T04:11:00.282Z,15.90
2023-02-23T04:13:30.623Z,16.87
2023-02-23T04:16:00.210Z,15.90
2023-02-23T04:18:31.786Z,16.67
2023-02-23T04:21:00.937Z,15.47
2023-02-23T04:23:29.859Z,16.17
2023-02-23T04:25:58.198Z,18.00
2023-02-23T04:28:27.721Z,15.93
2023-02-23T04:30:55.932Z,17.47
2023-02-23T04:33:24.952Z,17.67
2023-02-23T04:35:55.591Z,17.03
2023-02-23T04:38:24.088Z,15.60
2023-02-23T04:40:52.346Z,16.93
2023-02-23T04:43:20.375Z,17.57
2023-02-23T04:45:48.469Z,17.43
2023-02-23T04:48:16.478Z,15.00
2023-02-23T04:50:44.454Z,15.57
2023-02-23T04:53:13.786Z,16.73
2023-02-23T04:55:42.050Z,17.80
2023-02-23T04:58:13.669Z,16.10
2023-02-23T05:00:42.056Z,16.40
2023-02-23T05:03:10.669Z,17.70
2023-02-23T05:05:40.987Z,18.00
2023-02-23T05:08:08.974Z,16.27
2023-02-23T05:10:40.262Z,16.27
2023-02-23T05:13:08.485Z,16.63
2023-02-23T05:15:37.129Z,15.87
2023-02-23T05:18:05.165Z,19.47
2023-02-23T05:20:33.143Z,16.53
2023-02-23T05:23:03.859Z,14.77
2023-02-23T05:25:31.810Z,17.47
2023-02-23T05:28:01.353Z,20.03
2023-02-23T05:30:29.408Z,16.57
2023-02-23T05:32:57.432Z,14.90
2023-02-23T05:35:25.415Z,21.43
2023-02-23T05:37:54.748Z,17.73
2023-02-23T05:40:22.936Z,20.10
2023-02-23T05:42:50.910Z,18.93
2023-02-23T05:45:22.949Z,20.70
2023-02-23T05:47:51.955Z,22.17
2023-02-23T05:50:20.058Z,20.93
2023-02-23T05:52:48.047Z,19.00
2023-02-23T05:55:18.561Z,18.30
2023-02-23T05:57:49.426Z,18.53
2023-02-23T06:00:18.455Z,17.47
2023-02-23T06:02:47.934Z,18.63
2023-02-23T06:05:16.553Z,19.03
2023-02-23T06:07:44.597Z,15.60
2023-02-23T06:10:14.373Z,17.43
2023-02-23T06:12:42.357Z,18.23
2023-02-23T06:15:11.100Z,16.63
2023-02-23T06:17:39.183Z,21.07
2023-02-23T06:20:09.595Z,17.57
2023-02-23T06:22:37.561Z,19.17
2023-02-23T06:25:08.785Z,18.83
2023-02-23T06:27:36.910Z,19.60
2023-02-23T06:30:05.607Z,18.77
2023-02-23T06:32:33.636Z,16.77
2023-02-23T06:35:06.028Z,21.87
2023-02-23T06:37:36.316Z,16.43
2023-02-23T06:40:05.022Z,16.67
2023-02-23T06:42:34.275Z,16.73
2023-02-23T06:45:05.856Z,20.07
2023-02-23T06:47:34.406Z,17.13
2023-02-23T06:50:05.119Z,16.80
2023-02-23T06:52:33.482Z,16.87
2023-02-23T06:55:03.057Z,17.53
2023-02-23T06:57:31.027Z,19.70
2023-02-23T06:59:58.969Z,18.23
2023-02-23T07:02:26.931Z,19.63
2023-02-23T07:04:54.936Z,16.83
2023-02-23T07:07:26.055Z,19.33
2023-02-23T07:09:54.038Z,18.40
2023-02-23T07:12:23.407Z,21.70
2023-02-23T07:14:51.383Z,17.80
2023-02-23T07:17:19.398Z,20.90
2023-02-23T07:19:47.353Z,18.83
2023-02-23T07:22:15.372Z,18.27
2023-02-23T07:24:43.347Z,17.63
2023-02-23T07:27:11.462Z,19.00
2023-02-23T07:29:41.043Z,16.73
2023-02-23T07:32:09.111Z,15.50
2023-02-23T07:34:37.971Z,17.20
2023-02-23T07:37:06.049Z,16.37
2023-02-23T07:39:34.055Z,15.03
2023-02-23T07:42:02.284Z,16.70
2023-02-23T07:44:30.249Z,16.13
2023-02-23T07:46:59.623Z,14.53
2023-02-23T07:49:27.647Z,19.33
2023-02-23T07:51:55.635Z,19.33
2023-02-23T07:54:23.730Z,21.23
2023-02-23T07:56:51.906Z,17.07
2023-02-23T07:59:19.899Z,18.10
2023-02-23T08:01:47.968Z,15.73
2023-02-23T08:04:17.371Z,18.80
2023-02-23T08:06:45.430Z,15.97
2023-02-23T08:09:13.471Z,17.60
2023-02-23T08:11:44.787Z,15.87
2023-02-23T08:14:13.149Z,19.83
2023-02-23T08:16:41.251Z,16.13
2023-02-23T08:19:10.402Z,15.83
2023-02-23T08:21:39.765Z,16.20
2023-02-23T08:24:08.219Z,16.10
2023-02-23T08:26:38.154Z,16.93
2023-02-23T08:29:06.540Z,17.93
2023-02-23T08:31:35.200Z,17.00
2023-02-23T08:34:03.381Z,16.70
2023-02-23T08:36:31.373Z,18.97
2023-02-23T08:39:06.405Z,15.77
2023-02-23T08:41:34.581Z,14.40
2023-02-23T08:44:02.572Z,16.80
2023-02-23T08:46:30.616Z,18.13
2023-02-23T08:48:58.728Z,16.07
2023-02-23T08:51:27.276Z,17.37
2023-02-23T08:53:57.200Z,18.10
2023-02-23T08:56:26.998Z,16.37
2023-02-23T08:58:55.012Z,15.90
2023-02-23T09:01:23.166Z,14.77
2023-02-23T09:03:51.420Z,17.30
2023-02-23T09:06:21.678Z,18.30
2023-02-23T09:08:49.764Z,16.83
2023-02-23T09:11:18.309Z,15.67
2023-02-23T09:13:47.933Z,16.83
2023-02-23T09:16:16.118Z,17.30
2023-02-23T09:18:44.193Z,15.97
2023-02-23T09:21:21.088Z,16.13
2023-02-23T09:23:51.962Z,14.97
2023-02-23T09:26:23.231Z,17.47
2023-02-23T09:28:52.851Z,16.03
2023-02-23T09:31:23.695Z,18.80
2023-02-23T09:33:52.168Z,17.37
2023-02-23T09:36:22.069Z,16.47
2023-02-23T09:38:55.034Z,14.57
2023-02-23T09:42:01.703Z,17.43
2023-02-23T09:44:49.763Z,16.10
2023-02-23T09:47:30.685Z,18.40
2023-02-23T09:50:00.353Z,18.50
2023-02-23T09:52:35.508Z,18.00
2023-02-23T09:55:03.935Z,18.10
2023-02-23T09:57:39.744Z,17.13
2023-02-23T10:00:17.722Z,20.13
2023-02-23T10:03:02.181Z,16.67
2023-02-23T10:05:38.106Z,20.47
2023-02-23T10:08:09.546Z,17.10
2023-02-23T10:10:44.758Z,17.67
2023-02-23T10:13:21.053Z,16.20
2023-02-23T10:15:57.580Z,21.07
2023-02-23T10:18:46.044Z,17.63
2023-02-23T10:21:19.614Z,16.43
2023-02-23T10:23:53.088Z,17.10
2023-02-23T10:26:26.285Z,20.77
2023-02-23T10:28:57.424Z,17.87
2023-02-23T10:31:31.512Z,20.23
2023-02-23T10:34:04.849Z,15.73
2023-02-23T10:36:38.527Z,19.10
2023-02-23T10:39:09.044Z,17.10
2023-02-23T10:41:38.061Z,17.23
2023-02-23T10:44:16.721Z,18.87
2023-02-23T10:46:50.967Z,18.80
2023-02-23T10:49:23.492Z,17.83
2023-02-23T10:51:58.106Z,20.63
2023-02-23T10:54:43.945Z,19.57
2023-02-23T10:57:22.231Z,18.63
2023-02-23T11:00:04.120Z,19.90
2023-02-23T11:02:36.367Z,17.13
2023-02-23T11:05:06.300Z,20.90
2023-02-23T11:07:35.561Z,21.60
2023-02-23T11:10:27.456Z,21.97
2023-02-23T11:12:56.718Z,24.07
2023-02-23T11:15:46.457Z,21.17
2023-02-23T11:18:26.228Z,23.67
2023-02-23T11:20:54.700Z,22.27
2023-02-23T11:23:27.399Z,17.93
2023-02-23T11:25:56.940Z,23.87
2023-02-23T11:28:30.229Z,25.00
2023-02-23T11:31:02.930Z,23.70
2023-02-23T11:33:35.907Z,20.93
2023-02-23T11:36:18.611Z,21.27
2023-02-23T11:38:47.817Z,18.97
2023-02-23T11:41:22.887Z,25.70
2023-02-23T11:43:52.184Z,22.97
2023-02-23T11:46:21.787Z,21.70
2023-02-23T11:48:55.948Z,23.00
2023-02-23T11:51:30.402Z,23.03
2023-02-23T11:53:59.050Z,19.37
2023-02-23T11:56:28.846Z,21.33
2023-02-23T11:59:02.147Z,23.70
2023-02-23T12:01:41.728Z,21.07
2023-02-23T12:04:23.363Z,19.90
2023-02-23T12:06:52.553Z,25.33
2023-02-23T12:09:26.420Z,26.07
2023-02-23T12:12:00.704Z,25.20
2023-02-23T12:14:34.546Z,30.00
2023-02-23T12:17:07.976Z,23.40
2023-02-23T12:19:43.641Z,25.50
2023-02-23T12:22:14.495Z,20.93
2023-02-23T12:24:46.056Z,23.33
2023-02-23T12:27:18.999Z,22.80
2023-02-23T12:30:06.276Z,26.67
2023-02-23T12:32:45.302Z,23.00
2023-02-23T12:35:19.435Z,22.60
2023-02-23T12:37:53.629Z,23.57
2023-02-23T12:40:27.977Z,23.07
2023-02-23T12:43:03.163Z,20.70
2023-02-23T12:45:38.114Z,25.93
2023-02-23T12:48:15.259Z,23.03
2023-02-23T12:50:52.831Z,24.77
2023-02-23T12:53:24.263Z,22.27
2023-02-23T12:56:13.735Z,25.60
2023-02-23T12:58:50.054Z,23.33
2023-02-23T13:01:22.663Z,19.80
2023-02-23T13:04:25.988Z,22.73
2023-02-23T13:06:59.767Z,22.13
2023-02-23T13:09:44.973Z,22.63
2023-02-23T13:12:26.996Z,21.83
2023-02-23T13:15:02.088Z,24.77
2023-02-23T13:17:42.051Z,21.37
2023-02-23T13:20:18.056Z,25.90
2023-02-23T13:22:52.772Z,22.30
2023-02-23T13:25:36.892Z,24.73
2023-02-23T13:28:06.724Z,22.97
2023-02-23T13:30:35.954Z,23.77
2023-02-23T13:33:12.351Z,22.80
2023-02-23T13:35:43.177Z,23.10
2023-02-23T13:38:19.706Z,25.13
2023-02-23T13:40:52.080Z,22.03
2023-02-23T13:43:30.208Z,27.07
2023-02-23T13:46:15.798Z,30.67
2023-02-23T13:48:57.472Z,28.80
2023-02-23T13:51:35.926Z,30.03
2023-02-23T13:54:22.996Z,28.60
2023-02-23T13:56:55.275Z,22.80
2023-02-23T13:59:30.081Z,23.10
2023-02-23T14:02:01.741Z,25.17
2023-02-23T14:04:36.452Z,24.90
2023-02-23T14:07:16.536Z,24.33
2023-02-23T14:09:54.961Z,24.97
2023-02-23T14:12:27.499Z,21.37
2023-02-23T14:14:55.596Z,28.80
2023-02-23T14:17:56.285Z,22.97
2023-02-23T14:20:49.026Z,27.17
2023-02-23T14:23:51.383Z,22.93
2023-02-23T14:26:41.373Z,23.33
2023-02-23T14:29:40.310Z,24.10
2023-02-23T14:32:33.668Z,22.83
2023-02-23T14:35:03.341Z,22.87
2023-02-23T14:37:36.425Z,20.90
2023-02-23T14:40:59.661Z,28.53
2023-02-23T14:43:52.454Z,22.40
2023-02-23T14:46:24.449Z,25.47
2023-02-23T14:49:01.190Z,20.03
2023-02-23T14:51:42.224Z,23.17
2023-02-23T14:54:23.097Z,31.80
2023-02-23T14:56:53.015Z,26.20
2023-02-23T14:59:24.135Z,22.00
2023-02-23T15:01:53.182Z,22.40
2023-02-23T15:04:25.707Z,24.87
2023-02-23T15:06:57.217Z,25.17
2023-02-23T15:09:32.852Z,22.57
2023-02-23T15:12:04.346Z,28.40
2023-02-23T15:14:37.913Z,24.67
2023-02-23T15:17:06.354Z,26.47
2023-02-23T15:19:39.317Z,23.43
2023-02-23T15:22:08.048Z,23.67
2023-02-23T15:24:43.654Z,27.07
2023-02-23T15:27:26.824Z,29.53
2023-02-23T15:29:56.915Z,24.13
2023-02-23T15:32:26.398Z,31.80
2023-02-23T15:34:56.515Z,27.43
2023-02-23T15:37:32.085Z,20.17
2023-02-23T15:40:05.884Z,23.23
2023-02-23T15:42:38.236Z,21.17
2023-02-23T15:45:22.630Z,21.40
2023-02-23T15:47:54.828Z,25.37
2023-02-23T15:50:36.323Z,25.90
2023-02-23T15:53:13.254Z,21.63
2023-02-23T15:55:44.430Z,24.97
2023-02-23T15:58:18.688Z,21.97
2023-02-23T16:00:56.200Z,24.63
2023-02-23T16:03:26.567Z,22.77
2023-02-23T16:06:01.940Z,28.37
2023-02-23T16:08:30.984Z,29.80
2023-02-23T16:11:11.864Z,26.20
2023-02-23T16:13:44.422Z,29.53
2023-02-23T16:16:19.455Z,26.10
2023-02-23T16:18:52.514Z,28.87
2023-02-23T16:21:24.781Z,37.17
2023-02-23T16:23:55.452Z,40.77
2023-02-23T16:26:28.813Z,53.67
2023-02-23T16:28:59.683Z,63.37
2023-02-23T16:31:45.384Z,52.17
2023-02-23T16:34:22.536Z,44.40
2023-02-23T16:36:53.833Z,37.40
2023-02-23T16:39:25.342Z,38.60
2023-02-23T16:41:53.500Z,37.20
2023-02-23T16:44:28.480Z,32.43
2023-02-23T16:47:27.814Z,32.97
2023-02-23T16:49:55.787Z,31.97
2023-02-23T16:52:25.817Z,30.50
2023-02-23T16:54:55.878Z,29.53
2023-02-23T16:57:26.935Z,29.80
2023-02-23T16:59:57.529Z,30.60
2023-02-23T17:02:27.022Z,29.23
2023-02-23T17:04:58.826Z,33.73
2023-02-23T17:07:26.978Z,34.80
2023-02-23T17:09:54.944Z,32.93
2023-02-23T17:12:22.984Z,33.97
2023-02-23T17:14:51.362Z,26.27
2023-02-23T17:17:21.664Z,32.27
2023-02-23T17:19:51.049Z,29.83
2023-02-23T17:22:19.031Z,28.23
2023-02-23T17:24:46.986Z,37.87
2023-02-23T17:27:14.982Z,33.67
2023-02-23T17:29:43.111Z,29.13
2023-02-23T17:32:11.369Z,31.47
2023-02-23T17:34:39.843Z,37.80
2023-02-23T17:37:09.279Z,36.10
2023-02-23T17:39:40.529Z,30.40
2023-02-23T17:42:09.483Z,34.03
2023-02-23T17:44:42.134Z,34.00
2023-02-23T17:47:10.279Z,30.83
2023-02-23T17:49:38.632Z,33.97
2023-02-23T17:52:06.655Z,30.27
2023-02-23T17:54:35.983Z,29.77
2023-02-23T17:57:04.485Z,31.57
2023-02-23T17:59:32.470Z,34.73
2023-02-23T18:02:00.846Z,35.67
2023-02-23T18:04:28.881Z,38.47
2023-02-23T18:06:57.754Z,41.13
2023-02-23T18:09:25.944Z,44.27
2023-02-23T18:11:56.323Z,47.63
2023-02-23T18:14:24.744Z,45.97
2023-02-23T18:16:53.030Z,50.27
2023-02-23T18:19:21.617Z,47.27
2023-02-23T18:21:49.583Z,48.97
2023-02-23T18:24:17.899Z,45.10
2023-02-23T18:26:46.908Z,49.50
2023-02-23T18:29:16.264Z,43.50
2023-02-23T18:31:49.763Z,45.87
2023-02-23T18:34:17.933Z,46.37
2023-02-23T18:36:47.235Z,45.07
2023-02-23T18:39:15.589Z,43.93
2023-02-23T18:41:44.195Z,45.57
2023-02-23T18:44:14.630Z,45.43
2023-02-23T18:46:47.448Z,42.93
2023-02-23T18:49:17.460Z,43.57
2023-02-23T18:51:45.704Z,42.80
2023-02-23T18:54:16.820Z,47.90
2023-02-23T18:56:45.612Z,45.13
2023-02-23T18:59:13.700Z,44.13
2023-02-23T19:01:42.565Z,45.43
2023-02-23T19:04:13.921Z,44.87
2023-02-23T19:06:45.092Z,48.23
2023-02-23T19:09:14.436Z,48.33
2023-02-23T19:12:06.161Z,54.63
2023-02-23T19:14:48.828Z,67.17
2023-02-23T19:17:33.443Z,66.90
2023-02-23T19:20:12.794Z,63.40
2023-02-23T19:22:43.646Z,73.67
2023-02-23T19:25:15.300Z,60.53
2023-02-23T19:27:45.745Z,64.63
2023-02-23T19:30:21.504Z,64.53
2023-02-23T19:32:54.133Z,63.03
2023-02-23T19:35:25.450Z,67.60
2023-02-23T19:38:06.051Z,66.23
2023-02-23T19:40:41.478Z,62.87
2023-02-23T19:43:13.997Z,61.47
2023-02-23T19:45:51.502Z,59.77
2023-02-23T19:48:32.835Z,59.27
2023-02-23T19:51:15.386Z,57.93
2023-02-23T19:53:58.076Z,55.93
2023-02-23T19:56:30.196Z,57.47
2023-02-23T19:59:06.731Z,51.90
2023-02-23T20:02:03.327Z,51.90
2023-02-23T20:04:36.808Z,50.20
2023-02-23T20:07:11.618Z,52.57
2023-02-23T20:09:48.199Z,53.30
2023-02-23T20:12:21.699Z,55.77
2023-02-23T20:15:00.737Z,59.13
2023-02-23T20:17:35.464Z,59.17
2023-02-23T20:20:20.033Z,55.67
2023-02-23T20:22:57.986Z,60.23
2023-02-23T20:25:34.291Z,57.10
2023-02-23T20:30:54.231Z,52.17
2023-02-23T20:33:38.914Z,54.27
2023-02-23T20:36:09.434Z,52.37
2023-02-23T20:38:45.416Z,48.33
2023-02-23T20:41:17.307Z,51.20
2023-02-23T20:43:57.018Z,51.53
2023-02-23T20:46:30.903Z,50.97
2023-02-23T20:48:59.469Z,46.93
2023-02-23T20:51:31.359Z,49.43
2023-02-23T20:54:03.765Z,54.63
2023-02-23T20:56:40.332Z,51.93
2023-02-23T20:59:11.205Z,49.33
2023-02-23T21:01:56.384Z,51.97
2023-02-23T21:04:24.618Z,56.33
2023-02-23T21:07:04.909Z,56.63
2023-02-23T21:09:34.478Z,57.53
2023-02-23T21:12:03.626Z,56.20
2023-02-23T21:14:32.437Z,55.57
2023-02-23T21:17:04.211Z,54.30
2023-02-23T21:19:32.285Z,57.20
2023-02-23T21:22:04.596Z,64.20
2023-02-23T21:24:34.799Z,61.60
2023-02-23T21:27:05.620Z,61.30
2023-02-23T21:29:33.695Z,60.60
2023-02-23T21:32:01.856Z,63.73
2023-02-23T21:34:29.923Z,61.10
2023-02-23T21:36:59.176Z,59.23
2023-02-23T21:39:28.254Z,65.40
2023-02-23T21:41:59.310Z,62.13
2023-02-23T21:44:27.488Z,64.17
2023-02-23T21:46:55.500Z,61.80
2023-02-23T21:49:25.232Z,58.20
2023-02-23T21:51:54.007Z,62.33
2023-02-23T21:54:23.577Z,67.20
2023-02-23T21:56:51.554Z,70.90
2023-02-23T21:59:22.125Z,73.93
2023-02-23T22:01:50.126Z,81.57
2023-02-23T22:04:19.046Z,69.47
2023-02-23T22:06:47.232Z,76.77
2023-02-23T22:09:15.616Z,80.67
2023-02-23T22:11:46.757Z,73.30
2023-02-23T22:14:16.551Z,78.00
2023-02-23T22:16:46.357Z,74.07
2023-02-23T22:19:14.714Z,72.23
2023-02-23T22:21:43.216Z,68.73
2023-02-23T22:24:12.624Z,65.63
2023-02-23T22:26:53.919Z,67.87
2023-02-23T22:29:23.758Z,68.57
2023-02-23T22:31:53.719Z,71.87
2023-02-23T22:34:22.537Z,74.90
2023-02-23T22:36:50.944Z,89.27
2023-02-23T22:39:19.229Z,96.80
2023-02-23T22:41:48.607Z,102.33
2023-02-23T22:44:18.453Z,92.43
2023-02-23T22:46:47.970Z,84.80
2023-02-23T22:49:19.977Z,79.03
2023-02-23T22:51:50.411Z,75.97
2023-02-23T22:54:24.109Z,70.50
2023-02-23T22:56:52.481Z,74.83
2023-02-23T22:59:23.455Z,65.47
2023-02-23T23:01:53.519Z,61.77
2023-02-23T23:04:23.129Z,58.27
2023-02-23T23:06:51.270Z,62.63
2023-02-23T23:09:23.806Z,56.63
2023-02-23T23:11:56.602Z,56.37
2023-02-23T23:14:26.016Z,50.27
2023-02-23T23:16:54.013Z,51.83
2023-02-23T23:19:24.734Z,55.93
2023-02-23T23:21:54.975Z,53.63
2023-02-23T23:24:24.260Z,52.43
2023-02-23T23:26:55.433Z,51.17
2023-02-23T23:29:25.714Z,51.90
2023-02-23T23:31:56.896Z,53.30
2023-02-23T23:34:26.462Z,55.07
2023-02-23T23:36:55.275Z,56.07
2023-02-23T23:39:25.880Z,55.77
2023-02-23T23:41:54.473Z,54.00
2023-02-23T23:44:24.786Z,58.27
2023-02-23T23:46:53.270Z,53.47
2023-02-23T23:49:25.410Z,55.53
2023-02-23T23:51:57.094Z,52.77
2023-02-23T23:54:27.297Z,55.23
2023-02-23T23:56:55.796Z,53.00
2023-02-23T23:59:26.680Z,54.43
